createdAt,value
2019-05-01T00:02:25.502Z,6.83
2019-05-01T00:05:14.120Z,6.76
2019-05-01T00:07:42.780Z,6.73
2019-05-01T00:10:11.489Z,6.76
2019-05-01T00:12:40.486Z,6.79
2019-05-01T00:15:10.103Z,6.77
2019-05-01T00:17:38.810Z,6.73
2019-05-01T00:20:07.450Z,6.71
2019-05-01T00:22:36.105Z,6.72
2019-05-01T00:25:04.903Z,6.73
2019-05-01T00:27:33.603Z,6.77
2019-05-01T00:30:02.259Z,6.79
2019-05-01T00:32:31.359Z,6.87
2019-05-01T00:35:00.090Z,6.92
2019-05-01T00:37:28.729Z,7.00
2019-05-01T00:39:57.371Z,7.12
2019-05-01T00:42:26.899Z,7.24
2019-05-01T00:44:55.626Z,7.26
2019-05-01T00:47:25.236Z,7.32
2019-05-01T00:49:53.870Z,7.28
2019-05-01T00:52:22.594Z,7.18
2019-05-01T00:54:52.938Z,7.09
2019-05-01T00:57:49.762Z,7.04
2019-05-01T01:01:02.054Z,6.99
2019-05-01T01:03:30.771Z,6.86
2019-05-01T01:05:59.419Z,6.69
2019-05-01T01:08:28.066Z,6.67
2019-05-01T01:10:57.028Z,6.62
2019-05-01T01:13:25.728Z,6.60
2019-05-01T01:15:54.373Z,6.48
2019-05-01T01:18:23.179Z,6.43
2019-05-01T01:20:51.824Z,6.40
2019-05-01T01:23:20.880Z,6.36
2019-05-01T01:25:49.524Z,6.31
2019-05-01T01:28:18.623Z,6.35
2019-05-01T01:30:56.136Z,6.43
2019-05-01T01:33:17.693Z,6.35
2019-05-01T01:35:46.683Z,6.21
2019-05-01T01:38:15.319Z,6.18
2019-05-01T01:40:43.963Z,6.16
2019-05-01T01:43:30.496Z,6.06
2019-05-01T01:45:59.955Z,6.12
2019-05-01T01:48:28.591Z,5.93
2019-05-01T01:50:57.223Z,5.93
2019-05-01T01:53:25.875Z,5.85
2019-05-01T01:55:54.500Z,5.72
2019-05-01T01:58:23.142Z,5.63
2019-05-01T02:01:17.264Z,5.56
2019-05-01T02:03:49.381Z,5.49
2019-05-01T02:06:18.103Z,5.41
2019-05-01T02:08:56.398Z,5.36
2019-05-01T02:11:17.148Z,5.34
2019-05-01T02:13:45.787Z,5.28
2019-05-01T02:16:14.490Z,5.21
2019-05-01T02:18:43.168Z,5.18
2019-05-01T02:21:11.800Z,5.14
2019-05-01T02:23:40.448Z,5.12
2019-05-01T02:26:10.695Z,5.10
2019-05-01T02:28:57.808Z,5.04
2019-05-01T02:31:32.825Z,5.01
2019-05-01T02:34:01.537Z,4.90
2019-05-01T02:36:30.191Z,4.86
2019-05-01T02:38:58.921Z,4.86
2019-05-01T02:41:29.570Z,4.81
2019-05-01T02:44:00.587Z,4.78
2019-05-01T02:46:29.512Z,4.74
2019-05-01T02:49:02.277Z,4.74
2019-05-01T02:51:30.915Z,4.71
2019-05-01T02:53:59.558Z,4.72
2019-05-01T02:56:59.020Z,4.72
2019-05-01T02:59:28.238Z,4.71
2019-05-01T03:01:58.184Z,4.64
2019-05-01T03:04:26.852Z,4.60
2019-05-01T03:06:55.491Z,4.57
2019-05-01T03:09:24.143Z,4.55
2019-05-01T03:11:53.142Z,4.53
2019-05-01T03:14:21.773Z,4.53
2019-05-01T03:16:50.493Z,4.50
2019-05-01T03:19:26.010Z,4.47
2019-05-01T03:22:03.651Z,4.46
2019-05-01T03:24:32.303Z,4.40
2019-05-01T03:27:00.932Z,4.36
2019-05-01T03:29:29.592Z,4.31
2019-05-01T03:32:15.404Z,4.31
2019-05-01T03:34:28.584Z,4.31
2019-05-01T03:36:57.317Z,4.35
2019-05-01T03:39:25.959Z,4.49
2019-05-01T03:41:54.588Z,4.59
2019-05-01T03:44:23.258Z,4.63
2019-05-01T03:46:51.879Z,4.65
2019-05-01T03:49:20.514Z,4.62
2019-05-01T03:51:49.958Z,4.58
2019-05-01T03:54:18.659Z,4.56
2019-05-01T03:56:47.292Z,4.53
2019-05-01T03:59:15.947Z,4.44
2019-05-01T04:01:57.426Z,4.44
2019-05-01T04:04:28.152Z,4.41
2019-05-01T04:06:56.803Z,4.38
2019-05-01T04:09:25.442Z,4.43
2019-05-01T04:11:54.268Z,4.54
2019-05-01T04:14:22.927Z,4.64
2019-05-01T04:16:57.017Z,4.64
2019-05-01T04:19:25.648Z,4.66
2019-05-01T04:21:59.923Z,4.68
2019-05-01T04:24:28.678Z,4.76
2019-05-01T04:26:57.804Z,4.78
2019-05-01T04:29:35.847Z,4.80
2019-05-01T04:32:15.870Z,4.82
2019-05-01T04:35:12.643Z,4.92
2019-05-01T04:37:41.310Z,4.97
2019-05-01T04:40:10.298Z,5.02
2019-05-01T04:42:39.131Z,5.07
2019-05-01T04:45:07.878Z,5.17
2019-05-01T04:47:36.684Z,5.26
2019-05-01T04:50:05.415Z,5.36
2019-05-01T04:52:34.441Z,5.51
2019-05-01T04:55:03.140Z,5.61
2019-05-01T04:57:32.855Z,5.63
2019-05-01T05:00:01.508Z,5.65
2019-05-01T05:02:37.871Z,5.74
2019-05-01T05:05:06.695Z,5.89
2019-05-01T05:07:35.594Z,6.05
2019-05-01T05:10:04.419Z,6.27
2019-05-01T05:13:07.293Z,6.28
2019-05-01T05:15:45.366Z,6.23
2019-05-01T05:18:14.182Z,6.43
2019-05-01T05:20:42.814Z,6.48
2019-05-01T05:23:11.595Z,6.68
2019-05-01T05:25:41.422Z,6.81
2019-05-01T05:28:10.330Z,6.85
2019-05-01T05:30:38.978Z,6.87
2019-05-01T05:33:17.756Z,6.95
2019-05-01T05:35:38.229Z,6.99
2019-05-01T05:38:26.422Z,7.34
2019-05-01T05:40:55.074Z,7.55
2019-05-01T05:43:23.714Z,7.59
2019-05-01T05:45:52.356Z,7.79
2019-05-01T05:48:21.010Z,8.06
2019-05-01T05:50:58.976Z,8.12
2019-05-01T05:53:28.608Z,8.28
2019-05-01T05:55:57.852Z,8.41
2019-05-01T05:58:30.836Z,8.31
2019-05-01T06:01:21.787Z,8.36
2019-05-01T06:04:16.427Z,8.43
2019-05-01T06:07:16.284Z,8.69
2019-05-01T06:09:54.919Z,8.54
2019-05-01T06:12:30.790Z,8.16
2019-05-01T06:15:13.221Z,8.39
2019-05-01T06:17:46.707Z,8.70
2019-05-01T06:20:26.093Z,8.74
2019-05-01T06:23:24.337Z,8.91
2019-05-01T06:26:00.229Z,8.85
2019-05-01T06:28:26.323Z,9.22
2019-05-01T06:30:58.036Z,9.15
2019-05-01T06:33:26.738Z,9.23
2019-05-01T06:35:56.448Z,9.46
2019-05-01T06:38:25.173Z,9.41
2019-05-01T06:40:58.114Z,9.58
2019-05-01T06:44:02.222Z,10.02
2019-05-01T06:46:51.514Z,9.88
2019-05-01T06:49:51.270Z,9.98
2019-05-01T06:52:24.888Z,10.05
2019-05-01T06:54:53.606Z,10.07
2019-05-01T06:57:22.493Z,10.40
2019-05-01T06:59:51.212Z,10.60
2019-05-01T07:02:19.866Z,10.69
2019-05-01T07:04:48.579Z,10.95
2019-05-01T07:07:24.974Z,11.19
2019-05-01T07:09:49.359Z,11.14
2019-05-01T07:12:24.049Z,11.18
2019-05-01T07:14:52.192Z,11.28
2019-05-01T07:17:21.371Z,11.65
2019-05-01T07:20:21.499Z,11.89
2019-05-01T07:22:50.218Z,11.76
2019-05-01T07:25:18.923Z,12.00
2019-05-01T07:27:47.586Z,12.13
2019-05-01T07:30:26.016Z,12.30
2019-05-01T07:32:54.680Z,12.34
2019-05-01T07:35:23.671Z,12.67
2019-05-01T07:37:52.330Z,12.87
2019-05-01T07:40:29.052Z,12.70
2019-05-01T07:42:55.738Z,12.28
2019-05-01T07:45:38.898Z,12.32
2019-05-01T07:48:07.777Z,12.43
2019-05-01T07:50:36.502Z,12.27
2019-05-01T07:53:05.151Z,12.26
2019-05-01T07:55:37.449Z,12.39
2019-05-01T07:58:10.253Z,12.51
2019-05-01T08:00:45.935Z,12.97
2019-05-01T08:03:14.664Z,13.48
2019-05-01T08:05:45.479Z,13.71
2019-05-01T08:08:13.765Z,13.73
2019-05-01T08:10:42.451Z,13.94
2019-05-01T08:13:11.103Z,14.16
2019-05-01T08:15:39.905Z,14.13
2019-05-01T08:18:15.387Z,14.39
2019-05-01T08:20:50.444Z,14.26
2019-05-01T08:23:16.999Z,14.82
2019-05-01T08:25:45.675Z,14.62
2019-05-01T08:28:20.347Z,14.76
2019-05-01T08:31:10.967Z,15.15
2019-05-01T08:33:54.286Z,14.89
2019-05-01T08:36:22.961Z,14.97
2019-05-01T08:38:51.889Z,15.11
2019-05-01T08:41:20.546Z,15.34
2019-05-01T08:43:54.185Z,15.04
2019-05-01T08:46:42.174Z,15.53
2019-05-01T08:49:15.516Z,15.75
2019-05-01T08:51:44.168Z,16.65
2019-05-01T08:54:12.896Z,17.36
2019-05-01T08:56:43.697Z,17.55
2019-05-01T08:59:12.084Z,17.92
2019-05-01T09:01:45.857Z,18.16
2019-05-01T09:04:13.338Z,18.39
2019-05-01T09:06:43.808Z,18.62
2019-05-01T09:09:13.976Z,18.53
2019-05-01T09:11:42.998Z,19.22
2019-05-01T09:14:11.649Z,18.98
2019-05-01T09:16:40.341Z,19.28
2019-05-01T09:19:08.996Z,20.57
2019-05-01T09:21:39.392Z,21.81
2019-05-01T09:24:09.384Z,21.72
2019-05-01T09:26:50.250Z,22.28
2019-05-01T09:29:22.623Z,22.50
2019-05-01T09:31:52.395Z,22.52
2019-05-01T09:34:21.201Z,22.31
2019-05-01T09:36:49.870Z,23.09
2019-05-01T09:39:18.783Z,22.81
2019-05-01T09:41:48.840Z,22.76
2019-05-01T09:44:17.666Z,22.94
2019-05-01T09:46:46.308Z,22.66
2019-05-01T09:49:18.281Z,22.10
2019-05-01T09:51:52.822Z,21.56
2019-05-01T09:54:30.614Z,21.54
2019-05-01T09:56:59.328Z,21.53
2019-05-01T09:59:27.971Z,21.49
2019-05-01T10:01:56.638Z,22.21
2019-05-01T10:04:30.033Z,22.43
2019-05-01T10:06:55.747Z,22.76
2019-05-01T10:09:26.759Z,21.88
2019-05-01T10:11:54.780Z,21.93
2019-05-01T10:14:23.526Z,22.48
2019-05-01T10:16:52.449Z,23.31
2019-05-01T10:19:21.150Z,23.22
2019-05-01T10:21:49.864Z,23.97
2019-05-01T10:24:18.859Z,23.83
2019-05-01T10:26:49.800Z,23.56
2019-05-01T10:29:40.995Z,23.14
2019-05-01T10:32:16.903Z,22.46
2019-05-01T10:35:14.307Z,21.69
2019-05-01T10:37:40.375Z,21.63
2019-05-01T10:40:09.079Z,21.39
2019-05-01T10:42:37.747Z,21.11
2019-05-01T10:45:06.416Z,21.46
2019-05-01T10:47:35.164Z,20.64
2019-05-01T10:50:03.987Z,20.22
2019-05-01T10:52:32.760Z,20.25
2019-05-01T10:55:01.515Z,20.25
2019-05-01T10:57:30.225Z,20.53
2019-05-01T10:59:58.991Z,20.58
2019-05-01T11:02:27.632Z,20.22
2019-05-01T11:04:56.343Z,20.07
2019-05-01T11:07:25.004Z,20.20
2019-05-01T11:09:53.652Z,20.62
2019-05-01T11:12:23.098Z,20.50
2019-05-01T11:14:51.748Z,21.11
2019-05-01T11:17:20.525Z,21.41
2019-05-01T11:19:49.206Z,22.03
2019-05-01T11:22:17.931Z,22.02
2019-05-01T11:24:46.893Z,22.50
2019-05-01T11:27:15.599Z,22.61
2019-05-01T11:29:44.251Z,23.29
2019-05-01T11:32:22.800Z,23.03
2019-05-01T11:35:22.728Z,22.60
2019-05-01T11:37:56.499Z,22.10
2019-05-01T11:40:31.511Z,22.07
2019-05-01T11:43:02.736Z,21.78
2019-05-01T11:45:32.920Z,21.95
2019-05-01T11:48:01.560Z,22.09
2019-05-01T11:50:30.525Z,22.42
2019-05-01T11:52:59.175Z,22.94
2019-05-01T11:55:27.818Z,23.72
2019-05-01T11:57:56.743Z,24.16
2019-05-01T12:00:25.763Z,24.42
2019-05-01T12:02:54.493Z,24.23
2019-05-01T12:05:23.155Z,24.12
2019-05-01T12:07:51.835Z,24.02
2019-05-01T12:10:20.481Z,23.64
2019-05-01T12:12:49.115Z,23.61
2019-05-01T12:15:17.945Z,23.93
2019-05-01T12:17:50.230Z,23.66
2019-05-01T12:20:19.630Z,23.40
2019-05-01T12:22:51.208Z,22.89
2019-05-01T12:25:18.710Z,22.42
2019-05-01T12:27:47.357Z,22.04
2019-05-01T12:30:16.950Z,21.88
2019-05-01T12:32:45.684Z,21.53
2019-05-01T12:35:14.516Z,21.46
2019-05-01T12:37:43.916Z,21.05
2019-05-01T12:40:14.360Z,21.53
2019-05-01T12:42:43.088Z,21.94
2019-05-01T12:45:13.492Z,22.25
2019-05-01T12:47:45.798Z,22.07
2019-05-01T12:50:14.528Z,21.65
2019-05-01T12:53:00.522Z,21.81
2019-05-01T12:55:49.392Z,21.93
2019-05-01T12:58:18.060Z,21.96
2019-05-01T13:00:49.169Z,21.92
2019-05-01T13:03:17.899Z,22.00
2019-05-01T13:05:46.611Z,21.97
2019-05-01T13:08:15.287Z,22.00
2019-05-01T13:10:43.927Z,22.04
2019-05-01T13:13:12.558Z,22.08
2019-05-01T13:15:41.204Z,22.08
2019-05-01T13:18:11.606Z,22.20
2019-05-01T13:20:40.324Z,22.39
2019-05-01T13:23:08.961Z,23.09
2019-05-01T13:25:37.665Z,23.04
2019-05-01T13:28:24.534Z,22.51
2019-05-01T13:31:00.299Z,21.84
2019-05-01T13:33:28.938Z,21.94
2019-05-01T13:35:57.576Z,22.16
2019-05-01T13:38:26.312Z,22.44
2019-05-01T13:40:54.942Z,22.94
2019-05-01T13:43:23.600Z,23.17
2019-05-01T13:45:52.274Z,23.20
2019-05-01T13:48:20.910Z,23.28
2019-05-01T13:50:49.555Z,23.44
2019-05-01T13:53:18.216Z,23.12
2019-05-01T13:55:46.867Z,22.92
2019-05-01T13:58:15.529Z,22.92
2019-05-01T14:00:44.360Z,23.32
2019-05-01T14:03:13.011Z,22.96
2019-05-01T14:05:42.042Z,22.66
2019-05-01T14:08:10.713Z,22.40
2019-05-01T14:10:39.415Z,22.13
2019-05-01T14:13:08.049Z,21.84
2019-05-01T14:15:36.704Z,21.38
2019-05-01T14:18:05.416Z,21.02
2019-05-01T14:20:41.855Z,20.62
2019-05-01T14:23:21.071Z,21.01
2019-05-01T14:26:05.348Z,20.88
2019-05-01T14:28:34.239Z,21.24
2019-05-01T14:31:02.881Z,21.34
2019-05-01T14:33:32.825Z,22.10
2019-05-01T14:36:01.546Z,26.09
2019-05-01T14:38:31.256Z,26.49
2019-05-01T14:40:59.998Z,25.64
2019-05-01T14:43:29.011Z,24.47
2019-05-01T14:45:57.630Z,24.18
2019-05-01T14:48:26.614Z,24.08
2019-05-01T14:50:55.256Z,24.04
2019-05-01T14:53:23.894Z,23.65
2019-05-01T14:55:52.549Z,23.44
2019-05-01T14:58:21.239Z,23.38
2019-05-01T15:00:49.959Z,23.42
2019-05-01T15:03:18.895Z,23.66
2019-05-01T15:05:47.543Z,23.89
2019-05-01T15:08:16.201Z,23.93
2019-05-01T15:10:44.928Z,24.17
2019-05-01T15:13:24.071Z,24.65
2019-05-01T15:16:00.919Z,25.00
2019-05-01T15:18:48.629Z,25.06
2019-05-01T15:21:17.272Z,24.90
2019-05-01T15:23:53.431Z,24.67
2019-05-01T15:26:16.234Z,24.80
2019-05-01T15:28:45.230Z,24.88
2019-05-01T15:31:14.039Z,25.40
2019-05-01T15:33:42.680Z,25.80
2019-05-01T15:36:11.341Z,25.98
2019-05-01T15:38:40.354Z,26.28
2019-05-01T15:41:26.878Z,26.48
2019-05-01T15:44:14.588Z,26.68
2019-05-01T15:46:43.248Z,26.59
2019-05-01T15:49:11.868Z,26.46
2019-05-01T15:51:40.619Z,26.34
2019-05-01T15:54:09.268Z,26.72
2019-05-01T15:56:38.957Z,27.97
2019-05-01T15:59:07.604Z,26.59
2019-05-01T16:01:36.364Z,25.79
2019-05-01T16:04:05.977Z,25.49
2019-05-01T16:06:34.620Z,24.99
2019-05-01T16:09:04.692Z,24.34
2019-05-01T16:12:11.318Z,24.30
2019-05-01T16:14:41.181Z,23.63
2019-05-01T16:17:09.822Z,24.03
2019-05-01T16:19:38.463Z,24.10
2019-05-01T16:22:07.196Z,25.40
2019-05-01T16:24:35.932Z,27.35
2019-05-01T16:27:04.940Z,27.63
2019-05-01T16:29:33.578Z,27.09
2019-05-01T16:32:02.282Z,26.24
2019-05-01T16:34:30.957Z,25.67
2019-05-01T16:36:59.819Z,24.41
2019-05-01T16:39:50.456Z,23.79
2019-05-01T16:42:31.616Z,23.26
2019-05-01T16:45:00.306Z,23.80
2019-05-01T16:47:28.977Z,24.51
2019-05-01T16:49:57.704Z,24.16
2019-05-01T16:52:29.550Z,23.64
2019-05-01T16:54:59.507Z,22.80
2019-05-01T16:57:28.768Z,22.31
2019-05-01T16:59:57.668Z,21.77
2019-05-01T17:02:46.753Z,21.62
2019-05-01T17:05:43.939Z,21.46
2019-05-01T17:08:36.264Z,21.31
2019-05-01T17:11:00.900Z,21.10
2019-05-01T17:13:29.693Z,20.84
2019-05-01T17:15:58.499Z,21.15
2019-05-01T17:18:27.608Z,20.84
2019-05-01T17:20:56.243Z,20.48
2019-05-01T17:23:24.963Z,20.14
2019-05-01T17:25:53.595Z,19.80
2019-05-01T17:28:22.323Z,19.73
2019-05-01T17:31:01.012Z,19.51
2019-05-01T17:33:29.971Z,19.74
2019-05-01T17:35:58.603Z,19.75
2019-05-01T17:38:27.542Z,19.28
2019-05-01T17:40:56.572Z,19.06
2019-05-01T17:43:25.284Z,18.77
2019-05-01T17:45:53.998Z,18.95
2019-05-01T17:48:22.708Z,19.13
2019-05-01T17:50:55.053Z,18.80
2019-05-01T17:53:21.764Z,18.71
2019-05-01T17:55:50.482Z,18.73
2019-05-01T17:58:19.142Z,18.50
2019-05-01T18:01:13.874Z,18.31
2019-05-01T18:03:58.376Z,17.91
2019-05-01T18:06:29.677Z,17.42
2019-05-01T18:09:03.146Z,16.74
2019-05-01T18:11:28.659Z,16.63
2019-05-01T18:13:57.383Z,16.52
2019-05-01T18:16:26.968Z,16.31
2019-05-01T18:18:55.610Z,16.08
2019-05-01T18:21:24.344Z,15.73
2019-05-01T18:24:12.209Z,15.48
2019-05-01T18:27:14.712Z,15.25
2019-05-01T18:30:05.232Z,15.01
2019-05-01T18:32:41.632Z,14.63
2019-05-01T18:35:14.259Z,14.61
2019-05-01T18:37:50.223Z,14.61
2019-05-01T18:40:23.498Z,14.67
2019-05-01T18:42:52.149Z,14.57
2019-05-01T18:45:49.043Z,14.47
2019-05-01T18:48:17.870Z,14.34
2019-05-01T18:50:49.417Z,14.30
2019-05-01T18:53:17.022Z,14.20
2019-05-01T18:55:45.749Z,14.14
2019-05-01T18:58:14.664Z,14.03
2019-05-01T19:00:44.019Z,13.91
2019-05-01T19:03:12.784Z,13.93
2019-05-01T19:05:43.105Z,13.85
2019-05-01T19:08:12.247Z,13.59
2019-05-01T19:10:41.292Z,13.56
2019-05-01T19:13:10.497Z,13.51
2019-05-01T19:15:39.513Z,13.38
2019-05-01T19:18:08.159Z,13.40
2019-05-01T19:20:36.806Z,13.18
2019-05-01T19:23:06.068Z,13.01
2019-05-01T19:25:34.712Z,12.92
2019-05-01T19:28:04.368Z,12.82
2019-05-01T19:30:33.312Z,12.68
2019-05-01T19:33:02.281Z,12.42
2019-05-01T19:35:34.121Z,12.30
2019-05-01T19:38:01.310Z,12.26
2019-05-01T19:40:32.555Z,12.39
2019-05-01T19:43:00.400Z,12.15
2019-05-01T19:45:29.135Z,12.17
2019-05-01T19:47:58.075Z,12.13
2019-05-01T19:50:27.160Z,12.04
2019-05-01T19:52:55.917Z,11.87
2019-05-01T19:55:24.541Z,11.65
2019-05-01T19:57:55.040Z,11.66
2019-05-01T20:00:43.455Z,11.63
2019-05-01T20:03:12.307Z,11.61
2019-05-01T20:05:41.776Z,11.58
2019-05-01T20:08:11.169Z,11.40
2019-05-01T20:10:39.983Z,11.31
2019-05-01T20:13:12.282Z,11.21
2019-05-01T20:15:39.066Z,11.13
2019-05-01T20:18:07.720Z,11.35
2019-05-01T20:20:36.372Z,11.35
2019-05-01T20:23:05.091Z,11.40
2019-05-01T20:25:33.738Z,11.34
2019-05-01T20:28:02.478Z,11.27
2019-05-01T20:30:31.151Z,11.20
2019-05-01T20:33:02.266Z,11.15
2019-05-01T20:35:30.424Z,11.05
2019-05-01T20:37:59.163Z,10.95
2019-05-01T20:40:27.959Z,10.87
2019-05-01T20:43:01.035Z,10.79
2019-05-01T20:45:28.059Z,10.73
2019-05-01T20:47:57.569Z,10.62
2019-05-01T20:50:26.215Z,10.59
2019-05-01T20:52:54.947Z,10.57
2019-05-01T20:55:23.700Z,10.63
2019-05-01T20:57:54.087Z,10.70
2019-05-01T21:00:24.831Z,10.68
2019-05-01T21:02:53.758Z,10.74
2019-05-01T21:05:33.832Z,10.73
2019-05-01T21:08:29.055Z,10.51
2019-05-01T21:11:06.028Z,10.43
2019-05-01T21:13:34.636Z,10.45
2019-05-01T21:16:03.953Z,10.45
2019-05-01T21:18:33.058Z,10.44
2019-05-01T21:21:03.482Z,10.35
2019-05-01T21:23:33.444Z,10.25
2019-05-01T21:26:03.855Z,10.27
2019-05-01T21:28:34.038Z,10.27
2019-05-01T21:31:03.821Z,10.22
2019-05-01T21:33:33.966Z,10.17
2019-05-01T21:36:04.855Z,10.13
2019-05-01T21:38:33.341Z,10.11
2019-05-01T21:41:02.985Z,10.21
2019-05-01T21:43:33.150Z,10.22
2019-05-01T21:46:03.882Z,10.25
2019-05-01T21:48:33.412Z,10.07
2019-05-01T21:51:06.106Z,9.93
2019-05-01T21:53:32.957Z,9.82
2019-05-01T21:56:02.228Z,9.72
2019-05-01T21:58:35.320Z,9.66
2019-05-01T22:01:02.775Z,9.64
2019-05-01T22:03:31.687Z,9.59
2019-05-01T22:06:00.343Z,9.56
2019-05-01T22:08:28.992Z,9.51
2019-05-01T22:11:01.813Z,9.43
2019-05-01T22:13:28.323Z,9.38
2019-05-01T22:16:08.106Z,9.38
2019-05-01T22:18:42.645Z,9.42
2019-05-01T22:21:46.914Z,9.44
2019-05-01T22:24:40.698Z,9.38
2019-05-01T22:27:18.252Z,9.29
2019-05-01T22:29:52.758Z,9.23
2019-05-01T22:32:27.738Z,9.20
2019-05-01T22:35:07.178Z,9.16
2019-05-01T22:37:35.828Z,9.10
2019-05-01T22:40:08.077Z,9.09
2019-05-01T22:42:36.776Z,9.12
2019-05-01T22:45:05.977Z,9.15
2019-05-01T22:47:34.635Z,9.18
2019-05-01T22:50:03.448Z,9.18
2019-05-01T22:52:32.243Z,9.10
2019-05-01T22:55:01.287Z,9.02
2019-05-01T22:57:29.919Z,8.96
2019-05-01T22:59:58.693Z,8.98
2019-05-01T23:02:34.351Z,8.95
2019-05-01T23:05:02.989Z,8.90
2019-05-01T23:07:31.683Z,8.79
2019-05-01T23:10:03.202Z,8.72
2019-05-01T23:12:31.901Z,8.65
2019-05-01T23:15:00.821Z,8.58
2019-05-01T23:17:39.522Z,8.64
2019-05-01T23:20:08.074Z,8.63
2019-05-01T23:22:36.706Z,8.61
2019-05-01T23:25:06.584Z,8.46
2019-05-01T23:27:35.298Z,8.34
2019-05-01T23:30:04.626Z,8.25
2019-05-01T23:32:33.607Z,8.22
2019-05-01T23:35:02.350Z,8.24
2019-05-01T23:37:30.975Z,8.24
2019-05-01T23:39:59.684Z,8.21
2019-05-01T23:42:28.598Z,8.19
2019-05-01T23:44:57.260Z,8.16
2019-05-01T23:47:25.888Z,8.11
2019-05-01T23:49:54.831Z,8.05
2019-05-01T23:52:23.543Z,8.03
2019-05-01T23:54:52.183Z,7.97
2019-05-01T23:57:21.539Z,8.00
2019-05-01T23:59:50.191Z,8.09
